createdAt,value
2023-03-11T00:01:55.396Z,94.08
2023-03-11T00:04:24.427Z,93.88
2023-03-11T00:06:56.724Z,94.14
2023-03-11T00:09:23.878Z,93.39
2023-03-11T00:11:51.021Z,93.47
2023-03-11T00:14:18.357Z,93.16
2023-03-11T00:16:45.853Z,93.16
2023-03-11T00:19:13.020Z,93.22
2023-03-11T00:21:40.720Z,93.47
2023-03-11T00:24:09.300Z,93.96
2023-03-11T00:26:36.778Z,93.86
2023-03-11T00:29:04.844Z,94.54
2023-03-11T00:31:32.985Z,94.31
2023-03-11T00:34:00.805Z,94.25
2023-03-11T00:36:34.686Z,94.57
2023-03-11T00:39:07.090Z,94.59
2023-03-11T00:41:35.812Z,95.26
2023-03-11T00:44:05.029Z,95.59
2023-03-11T00:46:33.205Z,95.48
2023-03-11T00:49:01.544Z,95.42
2023-03-11T00:51:34.190Z,95.34
2023-03-11T00:54:01.999Z,95.08
2023-03-11T00:56:31.712Z,95.36
2023-03-11T00:58:59.560Z,95.21
2023-03-11T01:01:27.047Z,94.89
2023-03-11T01:03:54.611Z,95.49
2023-03-11T01:06:22.552Z,95.26
2023-03-11T01:08:53.312Z,95.69
2023-03-11T01:11:20.726Z,95.35
2023-03-11T01:13:48.099Z,95.08
2023-03-11T01:16:15.751Z,94.97
2023-03-11T01:18:43.801Z,95.58
2023-03-11T01:21:12.177Z,95.96
2023-03-11T01:23:42.212Z,95.96
2023-03-11T01:26:12.485Z,96.53
2023-03-11T01:28:43.361Z,95.79
2023-03-11T01:31:11.834Z,96.27
2023-03-11T01:33:40.855Z,95.95
2023-03-11T01:36:09.371Z,95.71
2023-03-11T01:38:37.827Z,95.43
2023-03-11T01:41:06.728Z,95.51
2023-03-11T01:43:44.018Z,94.93
2023-03-11T01:46:55.102Z,94.50
2023-03-11T01:49:26.648Z,94.36
2023-03-11T01:52:08.256Z,93.62
2023-03-11T01:54:44.547Z,93.70
2023-03-11T01:57:15.051Z,93.35
2023-03-11T01:59:52.363Z,93.91
2023-03-11T02:02:53.328Z,93.86
2023-03-11T02:05:24.277Z,93.65
2023-03-11T02:07:56.203Z,93.32
2023-03-11T02:10:29.877Z,92.68
2023-03-11T02:12:58.128Z,92.47
2023-03-11T02:15:31.512Z,92.84
2023-03-11T02:18:06.402Z,92.91
2023-03-11T02:20:37.753Z,92.79
2023-03-11T02:23:13.977Z,92.58
2023-03-11T02:26:00.781Z,92.49
2023-03-11T02:28:31.941Z,92.17
2023-03-11T02:31:00.850Z,92.45
2023-03-11T02:33:32.783Z,91.75
2023-03-11T02:36:00.661Z,91.55
2023-03-11T02:38:28.822Z,90.85
2023-03-11T02:41:01.367Z,90.31
2023-03-11T02:43:46.998Z,89.92
2023-03-11T02:46:21.167Z,89.23
2023-03-11T02:48:51.096Z,88.57
2023-03-11T02:51:19.210Z,88.28
2023-03-11T02:53:51.560Z,88.60
2023-03-11T02:56:19.782Z,88.65
2023-03-11T02:58:47.723Z,89.01
2023-03-11T03:01:16.250Z,89.27
2023-03-11T03:03:46.395Z,89.54
2023-03-11T03:06:16.941Z,89.32
2023-03-11T03:08:44.909Z,90.04
2023-03-11T03:11:12.300Z,90.20
2023-03-11T03:13:40.622Z,90.58
2023-03-11T03:16:08.011Z,90.82
2023-03-11T03:18:35.698Z,91.36
2023-03-11T03:21:04.211Z,91.75
2023-03-11T03:23:35.612Z,92.38
2023-03-11T03:26:03.920Z,93.17
2023-03-11T03:28:32.736Z,93.16
2023-03-11T03:31:10.301Z,93.44
2023-03-11T03:33:40.938Z,94.42
2023-03-11T03:36:12.066Z,94.45
2023-03-11T03:38:43.974Z,95.17
2023-03-11T03:41:16.014Z,96.09
2023-03-11T03:43:45.038Z,95.65
2023-03-11T03:46:13.693Z,95.83
2023-03-11T03:48:49.263Z,96.61
2023-03-11T03:51:17.386Z,97.14
2023-03-11T03:54:08.625Z,96.96
2023-03-11T03:56:37.311Z,97.37
2023-03-11T03:59:05.628Z,97.58
2023-03-11T04:01:41.799Z,97.34
2023-03-11T04:04:10.566Z,97.32
2023-03-11T04:06:38.679Z,98.31
2023-03-11T04:09:08.774Z,98.34
2023-03-11T04:11:36.495Z,98.34
2023-03-11T04:14:06.029Z,98.60
2023-03-11T04:16:37.501Z,98.81
2023-03-11T04:19:13.770Z,99.19
2023-03-11T04:21:41.634Z,98.60
2023-03-11T04:24:09.568Z,97.02
2023-03-11T04:26:39.193Z,98.04
2023-03-11T04:29:10.944Z,98.68
2023-03-11T04:31:42.760Z,99.10
2023-03-11T04:34:10.872Z,99.80
2023-03-11T04:36:39.904Z,99.32
2023-03-11T04:39:08.735Z,99.87
2023-03-11T04:41:41.433Z,100.00
2023-03-11T04:44:11.994Z,99.67
2023-03-11T04:46:40.224Z,100.00
2023-03-11T04:49:08.930Z,100.00
2023-03-11T04:51:37.331Z,100.00
2023-03-11T04:54:05.724Z,100.00
2023-03-11T04:56:34.088Z,99.84
2023-03-11T04:59:02.391Z,99.41
2023-03-11T05:01:31.742Z,99.38
2023-03-11T05:04:02.577Z,98.93
2023-03-11T05:06:30.888Z,98.78
2023-03-11T05:08:59.442Z,98.32
2023-03-11T05:11:28.365Z,97.62
2023-03-11T05:13:56.053Z,97.39
2023-03-11T05:16:23.425Z,96.54
2023-03-11T05:18:50.769Z,95.99
2023-03-11T05:21:18.438Z,95.71
2023-03-11T05:23:46.548Z,95.02
2023-03-11T05:26:15.494Z,94.13
2023-03-11T05:28:44.897Z,93.58
2023-03-11T05:31:14.999Z,92.88
2023-03-11T05:33:42.876Z,92.45
2023-03-11T05:36:13.362Z,92.15
2023-03-11T05:38:44.344Z,91.55
2023-03-11T05:41:13.173Z,91.66
2023-03-11T05:43:42.921Z,91.36
2023-03-11T05:46:11.761Z,90.65
2023-03-11T05:48:40.231Z,89.47
2023-03-11T05:51:10.311Z,89.48
2023-03-11T05:53:42.654Z,88.69
2023-03-11T05:56:10.902Z,87.99
2023-03-11T05:58:41.148Z,87.54
2023-03-11T06:01:13.499Z,87.42
2023-03-11T06:03:42.536Z,86.95
2023-03-11T06:06:13.200Z,86.44
2023-03-11T06:08:49.945Z,86.08
2023-03-11T06:11:20.628Z,86.15
2023-03-11T06:13:49.246Z,86.29
2023-03-11T06:16:20.077Z,86.27
2023-03-11T06:18:48.780Z,86.58
2023-03-11T06:21:23.450Z,86.65
2023-03-11T06:23:52.364Z,86.30
2023-03-11T06:26:23.283Z,87.23
2023-03-11T06:28:52.964Z,87.05
2023-03-11T06:31:29.070Z,87.28
2023-03-11T06:34:05.790Z,87.05
2023-03-11T06:36:33.772Z,86.68
2023-03-11T06:39:04.301Z,86.29
2023-03-11T06:41:37.660Z,86.03
2023-03-11T06:44:07.078Z,86.03
2023-03-11T06:46:36.588Z,85.90
2023-03-11T06:49:04.197Z,85.28
2023-03-11T06:51:32.302Z,84.98
2023-03-11T06:54:01.967Z,84.73
2023-03-11T06:56:29.642Z,85.11
2023-03-11T06:59:02.254Z,84.80
2023-03-11T07:01:32.923Z,84.62
2023-03-11T07:04:03.240Z,84.74
2023-03-11T07:06:31.894Z,84.90
2023-03-11T07:09:09.147Z,85.85
2023-03-11T07:11:41.182Z,85.80
2023-03-11T07:14:17.876Z,87.47
2023-03-11T07:16:50.125Z,88.17
2023-03-11T07:19:26.234Z,88.93
2023-03-11T07:21:54.487Z,90.74
2023-03-11T07:24:23.171Z,91.22
2023-03-11T07:26:50.765Z,92.04
2023-03-11T07:29:18.571Z,92.62
2023-03-11T07:31:46.505Z,93.29
2023-03-11T07:34:14.285Z,93.25
2023-03-11T07:36:43.050Z,94.41
2023-03-11T07:39:17.573Z,95.43
2023-03-11T07:41:46.486Z,96.32
2023-03-11T07:44:17.037Z,96.16
2023-03-11T07:46:45.872Z,96.04
2023-03-11T07:49:13.965Z,96.03
2023-03-11T07:51:44.066Z,96.39
2023-03-11T07:54:13.119Z,96.24
2023-03-11T07:56:41.126Z,96.03
2023-03-11T07:59:08.691Z,95.11
2023-03-11T08:01:36.856Z,93.63
2023-03-11T08:04:07.551Z,92.59
2023-03-11T08:06:37.550Z,92.65
2023-03-11T08:09:09.401Z,93.08
2023-03-11T08:11:37.396Z,92.42
2023-03-11T08:14:05.691Z,93.04
2023-03-11T08:16:34.178Z,92.17
2023-03-11T08:19:02.907Z,92.40
2023-03-11T08:21:32.512Z,93.41
2023-03-11T08:24:02.260Z,94.22
2023-03-11T08:26:33.173Z,94.74
2023-03-11T08:29:01.177Z,96.45
2023-03-11T08:31:31.419Z,97.41
2023-03-11T08:34:02.731Z,97.53
2023-03-11T08:36:31.061Z,97.80
2023-03-11T08:39:01.953Z,98.17
2023-03-11T08:41:29.848Z,98.08
2023-03-11T08:43:57.610Z,98.35
2023-03-11T08:46:30.334Z,97.86
2023-03-11T08:49:00.922Z,98.89
2023-03-11T08:51:31.543Z,100.00
2023-03-11T08:54:00.333Z,100.00
2023-03-11T08:56:29.814Z,100.00
2023-03-11T08:58:57.591Z,100.00
2023-03-11T09:01:26.218Z,100.00
2023-03-11T09:03:53.833Z,100.00
2023-03-11T09:06:22.803Z,100.00
2023-03-11T09:08:50.351Z,100.00
2023-03-11T09:11:19.120Z,100.00
2023-03-11T09:13:46.744Z,100.00
2023-03-11T09:16:21.286Z,100.00
2023-03-11T09:18:49.857Z,100.00
2023-03-11T09:21:17.615Z,100.00
2023-03-11T09:23:45.531Z,100.00
2023-03-11T09:26:13.834Z,100.00
2023-03-11T09:28:42.606Z,100.00
2023-03-11T09:31:10.848Z,100.00
2023-03-11T09:33:41.998Z,100.00
2023-03-11T09:36:15.302Z,100.00
2023-03-11T09:38:44.940Z,100.00
2023-03-11T09:41:17.935Z,100.00
2023-03-11T09:43:54.946Z,100.00
2023-03-11T09:46:26.055Z,100.00
2023-03-11T09:48:58.720Z,100.00
2023-03-11T09:51:36.908Z,100.00
2023-03-11T09:54:10.098Z,100.00
2023-03-11T09:56:39.720Z,100.00
2023-03-11T09:59:20.208Z,99.98
2023-03-11T10:01:50.942Z,100.00
2023-03-11T10:04:29.606Z,100.00
2023-03-11T10:06:59.884Z,100.00
2023-03-11T10:09:39.688Z,100.00
2023-03-11T10:12:26.684Z,100.00
2023-03-11T10:15:15.580Z,100.00
2023-03-11T10:17:52.618Z,100.00
2023-03-11T10:20:35.305Z,100.00
2023-03-11T10:23:09.822Z,100.00
2023-03-11T10:25:59.592Z,100.00
2023-03-11T10:28:47.149Z,100.00
2023-03-11T10:31:23.918Z,100.00
2023-03-11T10:34:01.412Z,100.00
2023-03-11T10:36:41.350Z,100.00
2023-03-11T10:39:11.520Z,100.00
2023-03-11T10:41:47.569Z,100.00
2023-03-11T10:44:33.276Z,100.00
2023-03-11T10:47:02.175Z,100.00
2023-03-11T10:49:30.634Z,100.00
2023-03-11T10:51:58.883Z,100.00
2023-03-11T10:54:35.354Z,100.00
2023-03-11T10:57:06.776Z,100.00
2023-03-11T10:59:47.610Z,100.00
2023-03-11T11:02:42.685Z,100.00
2023-03-11T11:05:20.472Z,100.00
2023-03-11T11:08:07.525Z,100.00
2023-03-11T11:10:36.707Z,100.00
2023-03-11T11:13:13.346Z,100.00
2023-03-11T11:15:51.344Z,100.00
2023-03-11T11:18:25.909Z,100.00
2023-03-11T11:21:15.264Z,100.00
2023-03-11T11:23:53.849Z,100.00
2023-03-11T11:26:24.893Z,100.00
2023-03-11T11:29:13.044Z,100.00
2023-03-11T11:31:43.982Z,100.00
2023-03-11T11:34:33.494Z,100.00
2023-03-11T11:37:07.117Z,100.00
2023-03-11T11:39:53.504Z,100.00
2023-03-11T11:42:22.119Z,100.00
2023-03-11T11:44:57.193Z,100.00
2023-03-11T11:47:30.833Z,100.00
2023-03-11T11:50:19.061Z,100.00
2023-03-11T11:52:55.911Z,100.00
2023-03-11T11:55:29.358Z,100.00
2023-03-11T11:57:57.317Z,100.00
2023-03-11T12:00:38.474Z,100.00
2023-03-11T12:03:28.798Z,100.00
2023-03-11T12:06:03.113Z,100.00
2023-03-11T12:08:43.219Z,100.00
2023-03-11T12:11:34.807Z,100.00
2023-03-11T12:14:15.865Z,100.00
2023-03-11T12:16:57.816Z,100.00
2023-03-11T12:19:28.532Z,100.00
2023-03-11T12:22:15.586Z,100.00
2023-03-11T12:25:09.760Z,100.00
2023-03-11T12:27:52.672Z,100.00
2023-03-11T12:30:31.425Z,100.00
2023-03-11T12:33:11.929Z,100.00
2023-03-11T12:35:40.000Z,100.00
2023-03-11T12:38:15.950Z,100.00
2023-03-11T12:40:43.586Z,100.00
2023-03-11T12:43:35.543Z,100.00
2023-03-11T12:46:11.638Z,100.00
2023-03-11T12:49:13.414Z,100.00
2023-03-11T12:51:41.651Z,100.00
2023-03-11T12:54:30.643Z,100.00
2023-03-11T12:57:19.360Z,100.00
2023-03-11T12:59:56.725Z,100.00
2023-03-11T13:03:02.507Z,100.00
2023-03-11T13:05:54.866Z,100.00
2023-03-11T13:08:47.030Z,100.00
2023-03-11T13:11:37.550Z,100.00
2023-03-11T13:14:31.474Z,100.00
2023-03-11T13:17:26.368Z,100.00
2023-03-11T13:19:58.441Z,100.00
2023-03-11T13:23:04.617Z,100.00
2023-03-11T13:25:47.589Z,100.00
2023-03-11T13:28:46.205Z,100.00
2023-03-11T13:31:41.220Z,100.00
2023-03-11T13:34:41.105Z,100.00
2023-03-11T13:37:09.633Z,100.00
2023-03-11T13:39:47.176Z,100.00
2023-03-11T13:42:40.729Z,100.00
2023-03-11T13:45:14.197Z,100.00
2023-03-11T13:47:46.675Z,100.00
2023-03-11T13:50:19.716Z,100.00
2023-03-11T13:52:55.791Z,100.00
2023-03-11T13:55:49.594Z,100.00
2023-03-11T13:58:23.901Z,100.00
2023-03-11T14:01:03.208Z,100.00
2023-03-11T14:03:43.220Z,100.00
2023-03-11T14:06:20.011Z,100.00
2023-03-11T14:08:55.799Z,100.00
2023-03-11T14:11:29.746Z,100.00
2023-03-11T14:13:57.263Z,100.00
2023-03-11T14:16:44.553Z,100.00
2023-03-11T14:19:17.613Z,100.00
2023-03-11T14:21:47.044Z,100.00
2023-03-11T14:24:28.887Z,100.00
2023-03-11T14:27:00.272Z,100.00
2023-03-11T14:29:43.592Z,100.00
2023-03-11T14:32:29.179Z,100.00
2023-03-11T14:34:57.406Z,100.00
2023-03-11T14:37:24.879Z,100.00
2023-03-11T14:39:54.071Z,100.00
2023-03-11T14:42:39.099Z,100.00
2023-03-11T14:45:14.856Z,100.00
2023-03-11T14:48:00.036Z,100.00
2023-03-11T14:50:31.235Z,100.00
2023-03-11T14:53:16.089Z,100.00
2023-03-11T14:55:53.553Z,100.00
2023-03-11T14:58:42.665Z,100.00
2023-03-11T15:01:24.864Z,100.00
2023-03-11T15:04:07.525Z,100.00
2023-03-11T15:06:38.471Z,100.00
2023-03-11T15:09:19.113Z,100.00
2023-03-11T15:11:50.633Z,100.00
2023-03-11T15:14:26.206Z,100.00
2023-03-11T15:16:55.162Z,100.00
2023-03-11T15:19:28.409Z,100.00
2023-03-11T15:22:04.558Z,100.00
2023-03-11T15:24:33.643Z,100.00
2023-03-11T15:27:20.455Z,100.00
2023-03-11T15:29:55.253Z,100.00
2023-03-11T15:32:39.078Z,100.00
2023-03-11T15:35:10.861Z,100.00
2023-03-11T15:37:39.113Z,100.00
2023-03-11T15:40:44.084Z,100.00
2023-03-11T15:43:15.440Z,100.00
2023-03-11T15:45:44.111Z,100.00
2023-03-11T15:48:13.681Z,100.00
2023-03-11T15:50:57.710Z,100.00
2023-03-11T15:53:27.442Z,100.00
2023-03-11T15:56:06.235Z,100.00
2023-03-11T15:58:34.797Z,100.00
2023-03-11T16:01:02.058Z,100.00
2023-03-11T16:03:31.365Z,100.00
2023-03-11T16:05:59.445Z,100.00
2023-03-11T16:08:26.686Z,100.00
2023-03-11T16:10:53.856Z,100.00
2023-03-11T16:13:21.061Z,100.00
2023-03-11T16:15:48.463Z,100.00
2023-03-11T16:18:16.813Z,100.00
2023-03-11T16:20:48.444Z,100.00
2023-03-11T16:23:22.593Z,100.00
2023-03-11T16:25:50.922Z,100.00
2023-03-11T16:28:18.484Z,100.00
2023-03-11T16:30:47.146Z,100.00
2023-03-11T16:33:14.539Z,100.00
2023-03-11T16:35:41.832Z,100.00
2023-03-11T16:38:09.766Z,100.00
2023-03-11T16:40:36.995Z,100.00
2023-03-11T16:43:06.479Z,100.00
2023-03-11T16:45:34.010Z,100.00
2023-03-11T16:48:01.995Z,100.00
2023-03-11T16:50:29.287Z,100.00
2023-03-11T16:52:58.139Z,100.00
2023-03-11T16:55:27.140Z,100.00
2023-03-11T16:57:56.724Z,100.00
2023-03-11T17:00:25.552Z,100.00
2023-03-11T17:02:52.881Z,100.00
2023-03-11T17:05:20.547Z,100.00
2023-03-11T17:07:48.085Z,100.00
2023-03-11T17:10:15.641Z,100.00
2023-03-11T17:12:43.081Z,100.00
2023-03-11T17:15:11.477Z,100.00
2023-03-11T17:17:38.662Z,100.00
2023-03-11T17:20:07.263Z,100.00
2023-03-11T17:22:34.861Z,100.00
2023-03-11T17:25:02.459Z,100.00
2023-03-11T17:27:32.958Z,100.00
2023-03-11T17:30:05.694Z,100.00
2023-03-11T17:32:33.174Z,100.00
2023-03-11T17:35:00.635Z,100.00
2023-03-11T17:37:28.125Z,100.00
2023-03-11T17:39:55.406Z,100.00
2023-03-11T17:42:22.580Z,100.00
2023-03-11T17:44:52.013Z,100.00
2023-03-11T17:47:20.587Z,100.00
2023-03-11T17:49:48.996Z,100.00
2023-03-11T17:52:16.120Z,100.00
2023-03-11T17:54:43.295Z,100.00
2023-03-11T17:57:10.594Z,100.00
2023-03-11T17:59:39.019Z,100.00
2023-03-11T18:02:07.842Z,100.00
2023-03-11T18:04:35.234Z,100.00
2023-03-11T18:07:02.628Z,100.00
2023-03-11T18:09:30.194Z,100.00
2023-03-11T18:11:57.587Z,100.00
2023-03-11T18:14:24.756Z,100.00
2023-03-11T18:16:52.009Z,100.00
2023-03-11T18:19:19.442Z,100.00
2023-03-11T18:21:46.619Z,100.00
2023-03-11T18:24:13.739Z,100.00
2023-03-11T18:26:40.845Z,100.00
2023-03-11T18:29:08.181Z,100.00
2023-03-11T18:31:35.718Z,100.00
2023-03-11T18:34:04.472Z,100.00
2023-03-11T18:36:34.626Z,100.00
2023-03-11T18:39:02.513Z,100.00
2023-03-11T18:41:33.247Z,100.00
2023-03-11T18:44:00.725Z,100.00
2023-03-11T18:46:31.942Z,100.00
2023-03-11T18:49:00.636Z,100.00
2023-03-11T18:51:29.090Z,100.00
2023-03-11T18:53:58.652Z,100.00
2023-03-11T18:56:26.840Z,100.00
2023-03-11T18:58:56.326Z,100.00
2023-03-11T19:01:24.337Z,100.00
2023-03-11T19:03:54.115Z,100.00
2023-03-11T19:06:22.322Z,100.00
2023-03-11T19:08:49.878Z,100.00
2023-03-11T19:11:19.794Z,100.00
2023-03-11T19:13:48.117Z,100.00
2023-03-11T19:16:18.760Z,100.00
2023-03-11T19:18:47.002Z,100.00
2023-03-11T19:21:15.551Z,100.00
2023-03-11T19:23:45.408Z,100.00
2023-03-11T19:26:13.288Z,100.00
2023-03-11T19:28:40.650Z,100.00
2023-03-11T19:31:08.001Z,100.00
2023-03-11T19:33:35.639Z,100.00
2023-03-11T19:36:06.219Z,100.00
2023-03-11T19:38:34.181Z,100.00
2023-03-11T19:41:11.731Z,100.00
2023-03-11T19:43:39.361Z,100.00
2023-03-11T19:46:09.277Z,100.00
2023-03-11T19:48:36.739Z,100.00
2023-03-11T19:51:07.147Z,100.00
2023-03-11T19:53:36.131Z,100.00
2023-03-11T19:56:05.218Z,100.00
2023-03-11T19:58:32.690Z,100.00
2023-03-11T20:00:59.964Z,100.00
2023-03-11T20:03:28.073Z,100.00
2023-03-11T20:05:58.116Z,100.00
2023-03-11T20:08:26.545Z,100.00
2023-03-11T20:10:55.459Z,100.00
2023-03-11T20:13:23.341Z,100.00
2023-03-11T20:15:51.201Z,100.00
2023-03-11T20:18:18.589Z,100.00
2023-03-11T20:20:46.950Z,100.00
2023-03-11T20:23:14.534Z,100.00
2023-03-11T20:25:42.599Z,100.00
2023-03-11T20:28:13.223Z,100.00
2023-03-11T20:30:43.446Z,100.00
2023-03-11T20:33:10.745Z,100.00
2023-03-11T20:35:38.146Z,100.00
2023-03-11T20:38:10.459Z,100.00
2023-03-11T20:40:37.775Z,100.00
2023-03-11T20:43:05.105Z,100.00
2023-03-11T20:45:32.472Z,100.00
2023-03-11T20:48:00.110Z,100.00
2023-03-11T20:50:27.612Z,100.00
2023-03-11T20:52:54.738Z,100.00
2023-03-11T20:55:23.313Z,100.00
2023-03-11T20:57:51.325Z,100.00
2023-03-11T21:00:19.577Z,100.00
2023-03-11T21:02:47.408Z,100.00
2023-03-11T21:05:14.822Z,100.00
2023-03-11T21:07:42.551Z,100.00
2023-03-11T21:10:12.811Z,100.00
2023-03-11T21:12:40.248Z,100.00
2023-03-11T21:15:09.486Z,100.00
2023-03-11T21:17:37.978Z,100.00
2023-03-11T21:20:08.022Z,100.00
2023-03-11T21:22:35.465Z,100.00
2023-03-11T21:25:03.257Z,100.00
2023-03-11T21:27:30.906Z,100.00
2023-03-11T21:30:00.053Z,100.00
2023-03-11T21:32:29.016Z,100.00
2023-03-11T21:35:00.478Z,100.00
2023-03-11T21:37:28.888Z,100.00
2023-03-11T21:39:56.375Z,100.00
2023-03-11T21:42:23.849Z,100.00
2023-03-11T21:44:51.884Z,100.00
2023-03-11T21:47:20.055Z,100.00
2023-03-11T21:49:47.883Z,100.00
2023-03-11T21:52:15.437Z,100.00
2023-03-11T21:54:42.846Z,100.00
2023-03-11T21:57:11.615Z,100.00
2023-03-11T21:59:39.082Z,100.00
2023-03-11T22:02:08.866Z,100.00
2023-03-11T22:04:36.529Z,100.00
2023-03-11T22:07:03.804Z,100.00
2023-03-11T22:09:31.244Z,100.00
2023-03-11T22:11:59.263Z,100.00
2023-03-11T22:14:26.444Z,100.00
2023-03-11T22:16:53.998Z,100.00
2023-03-11T22:19:21.594Z,100.00
2023-03-11T22:21:49.408Z,100.00
2023-03-11T22:24:17.833Z,100.00
2023-03-11T22:26:45.010Z,100.00
2023-03-11T22:29:13.783Z,100.00
2023-03-11T22:31:41.616Z,100.00
2023-03-11T22:34:09.120Z,100.00
2023-03-11T22:36:36.560Z,100.00
2023-03-11T22:39:05.278Z,100.00
2023-03-11T22:41:33.192Z,100.00
2023-03-11T22:44:00.639Z,100.00
2023-03-11T22:46:28.296Z,100.00
2023-03-11T22:48:55.853Z,100.00
2023-03-11T22:51:23.439Z,100.00
2023-03-11T22:53:50.828Z,100.00
2023-03-11T22:56:19.140Z,100.00
2023-03-11T22:58:46.754Z,100.00
2023-03-11T23:01:14.437Z,100.00
2023-03-11T23:03:43.459Z,100.00
2023-03-11T23:06:15.461Z,100.00
2023-03-11T23:08:44.470Z,100.00
2023-03-11T23:11:14.893Z,100.00
2023-03-11T23:13:43.641Z,100.00
2023-03-11T23:16:20.275Z,100.00
2023-03-11T23:18:50.258Z,100.00
2023-03-11T23:21:31.349Z,100.00
2023-03-11T23:24:01.212Z,100.00
2023-03-11T23:26:29.937Z,100.00
2023-03-11T23:28:58.824Z,100.00
2023-03-11T23:31:27.234Z,100.00
2023-03-11T23:33:54.888Z,100.00
2023-03-11T23:36:24.056Z,100.00
2023-03-11T23:38:51.483Z,100.00
2023-03-11T23:41:21.576Z,100.00
2023-03-11T23:43:48.850Z,100.00
2023-03-11T23:46:16.673Z,100.00
2023-03-11T23:48:44.234Z,100.00
2023-03-11T23:51:11.966Z,100.00
2023-03-11T23:53:39.652Z,100.00
2023-03-11T23:56:13.650Z,100.00
2023-03-11T23:58:41.245Z,100.00
